Terminal Aerodrome Forecast
Issued by NWS Charleston, WV

Current Version | Previous Version | Text Only | Print | Product List | Glossary Off
Versions: 1 2 3 4 5 6 7 8 9 10 11 12 13 14 15 16 17 18 19 20 21 22 23 24 25

000
FTUS41 KRLX 150234 AAA
TAFCRW
TAF AMD
KCRW 150234Z 1503/1524 33003KT 2SM BR OVC005
      TEMPO 1503/1506 1SM -DZ BR OVC003
     FM151400 35003KT 3SM BR OVC008
     FM151600 36003KT 5SM BR OVC012
     FM151700 02003KT P6SM OVC020
     FM151800 03005KT P6SM BKN035=

USA.gov is the U.S. government's official web portal to all federal, state and local government web resources and services.